createdAt,value
2017-11-06T00:01:45.960Z,59.04
2017-11-06T00:04:14.297Z,59.04
2017-11-06T00:06:42.577Z,59.13
2017-11-06T00:09:10.952Z,59.17
2017-11-06T00:11:39.252Z,59.03
2017-11-06T00:14:07.704Z,59.10
2017-11-06T00:16:36.020Z,59.06
2017-11-06T00:19:04.601Z,59.04
2017-11-06T00:21:34.624Z,59.00
2017-11-06T00:24:03.701Z,58.95
2017-11-06T00:26:32.319Z,58.84
2017-11-06T00:29:00.968Z,59.04
2017-11-06T00:31:29.341Z,59.04
2017-11-06T00:33:57.659Z,58.84
2017-11-06T00:36:26.046Z,58.69
2017-11-06T00:38:54.325Z,58.70
2017-11-06T00:41:22.604Z,58.69
2017-11-06T00:43:50.899Z,58.70
2017-11-06T00:46:19.204Z,58.75
2017-11-06T00:48:47.664Z,58.72
2017-11-06T00:51:15.971Z,58.75
2017-11-06T00:53:44.406Z,58.60
2017-11-06T00:56:12.716Z,58.64
2017-11-06T00:58:40.973Z,58.80
2017-11-06T01:01:09.298Z,58.81
2017-11-06T01:03:37.571Z,58.91
2017-11-06T01:06:05.863Z,58.87
2017-11-06T01:08:34.127Z,58.95
2017-11-06T01:11:02.412Z,58.90
2017-11-06T01:13:30.681Z,58.82
2017-11-06T01:15:58.991Z,58.72
2017-11-06T01:18:27.353Z,58.92
2017-11-06T01:20:55.659Z,58.77
2017-11-06T01:23:23.935Z,58.78
2017-11-06T01:25:52.248Z,58.75
2017-11-06T01:28:20.535Z,58.68
2017-11-06T01:30:48.852Z,58.92
2017-11-06T01:33:17.174Z,58.89
2017-11-06T01:35:45.671Z,58.79
2017-11-06T01:38:14.144Z,58.85
2017-11-06T01:40:42.504Z,58.83
2017-11-06T01:43:10.842Z,58.94
2017-11-06T01:45:39.155Z,59.08
2017-11-06T01:48:07.450Z,59.17
2017-11-06T01:50:35.823Z,59.08
2017-11-06T01:53:04.080Z,59.22
2017-11-06T01:55:32.372Z,59.23
2017-11-06T01:58:00.823Z,59.17
2017-11-06T02:00:29.149Z,59.15
2017-11-06T02:02:57.748Z,59.22
2017-11-06T02:05:28.965Z,59.20
2017-11-06T02:07:57.326Z,59.27
2017-11-06T02:10:25.608Z,59.27
2017-11-06T02:12:53.957Z,59.22
2017-11-06T02:15:22.425Z,59.23
2017-11-06T02:17:50.736Z,59.21
2017-11-06T02:20:19.377Z,59.14
2017-11-06T02:22:47.644Z,59.27
2017-11-06T02:25:15.940Z,59.40
2017-11-06T02:27:44.224Z,59.46
2017-11-06T02:30:12.523Z,59.40
2017-11-06T02:32:41.137Z,59.44
2017-11-06T02:35:09.455Z,59.42
2017-11-06T02:37:37.741Z,59.43
2017-11-06T02:40:06.084Z,59.40
2017-11-06T02:42:34.372Z,59.36
2017-11-06T02:45:02.792Z,59.32
2017-11-06T02:47:31.289Z,59.24
2017-11-06T02:49:59.681Z,59.15
2017-11-06T02:52:28.284Z,59.33
2017-11-06T02:54:56.720Z,59.34
2017-11-06T02:57:25.355Z,59.33
2017-11-06T02:59:53.623Z,59.24
2017-11-06T03:02:21.946Z,59.26
2017-11-06T03:04:50.227Z,59.22
2017-11-06T03:07:18.584Z,59.25
2017-11-06T03:09:46.883Z,59.40
2017-11-06T03:12:15.209Z,59.33
2017-11-06T03:14:43.488Z,59.30
2017-11-06T03:17:11.953Z,59.27
2017-11-06T03:19:40.278Z,59.22
2017-11-06T03:22:08.600Z,59.29
2017-11-06T03:24:37.372Z,59.32
2017-11-06T03:27:05.669Z,59.26
2017-11-06T03:29:33.960Z,59.27
2017-11-06T03:32:02.248Z,59.26
2017-11-06T03:34:30.504Z,59.16
2017-11-06T03:36:58.828Z,59.21
2017-11-06T03:39:27.123Z,59.21
2017-11-06T03:41:55.420Z,59.23
2017-11-06T03:44:23.676Z,59.22
2017-11-06T03:46:51.971Z,59.16
2017-11-06T03:49:20.404Z,59.17
2017-11-06T03:51:48.724Z,59.14
2017-11-06T03:54:17.013Z,59.21
2017-11-06T03:56:45.351Z,59.12
2017-11-06T03:59:13.709Z,59.16
2017-11-06T04:01:42.651Z,59.10
2017-11-06T04:04:10.959Z,59.02
2017-11-06T04:06:39.515Z,59.11
2017-11-06T04:09:07.876Z,59.06
2017-11-06T04:11:36.367Z,59.06
2017-11-06T04:14:04.824Z,59.05
2017-11-06T04:16:33.117Z,59.09
2017-11-06T04:19:01.392Z,59.10
2017-11-06T04:21:29.872Z,58.98
2017-11-06T04:23:58.175Z,59.03
2017-11-06T04:26:26.643Z,59.05
2017-11-06T04:28:55.076Z,59.01
2017-11-06T04:31:23.383Z,59.05
2017-11-06T04:33:52.636Z,59.10
2017-11-06T04:36:20.935Z,59.12
2017-11-06T04:38:49.331Z,59.02
2017-11-06T04:41:17.882Z,59.07
2017-11-06T04:43:46.371Z,59.07
2017-11-06T04:46:14.660Z,59.16
2017-11-06T04:48:42.931Z,59.11
2017-11-06T04:51:11.248Z,59.06
2017-11-06T04:53:39.530Z,59.13
2017-11-06T04:56:07.855Z,59.12
2017-11-06T04:58:36.158Z,59.12
2017-11-06T05:01:04.469Z,59.14
2017-11-06T05:03:32.771Z,59.08
2017-11-06T05:06:01.096Z,59.04
2017-11-06T05:08:29.376Z,59.08
2017-11-06T05:10:57.706Z,59.20
2017-11-06T05:13:26.021Z,59.23
2017-11-06T05:15:54.315Z,59.18
2017-11-06T05:18:22.585Z,59.15
2017-11-06T05:20:50.876Z,58.97
2017-11-06T05:23:19.133Z,58.92
2017-11-06T05:25:47.651Z,58.97
2017-11-06T05:28:15.990Z,59.07
2017-11-06T05:30:44.307Z,59.08
2017-11-06T05:33:12.587Z,59.09
2017-11-06T05:35:41.017Z,59.15
2017-11-06T05:38:09.464Z,59.17
2017-11-06T05:40:37.776Z,59.16
2017-11-06T05:43:06.065Z,59.22
2017-11-06T05:45:35.364Z,59.22
2017-11-06T05:48:04.363Z,59.05
2017-11-06T05:50:34.464Z,59.04
2017-11-06T05:53:02.988Z,58.93
2017-11-06T05:55:32.953Z,58.98
2017-11-06T05:58:01.295Z,59.00
2017-11-06T06:00:29.642Z,59.14
2017-11-06T06:02:58.312Z,59.14
2017-11-06T06:05:27.423Z,59.13
2017-11-06T06:07:55.756Z,59.23
2017-11-06T06:10:24.691Z,59.20
2017-11-06T06:12:53.924Z,59.17
2017-11-06T06:15:22.492Z,59.37
2017-11-06T06:17:51.099Z,59.44
2017-11-06T06:20:19.411Z,59.50
2017-11-06T06:22:49.535Z,59.52
2017-11-06T06:25:17.999Z,59.68
2017-11-06T06:27:46.834Z,59.70
2017-11-06T06:30:15.190Z,59.60
2017-11-06T06:32:44.064Z,59.68
2017-11-06T06:35:12.960Z,59.70
2017-11-06T06:37:41.235Z,59.65
2017-11-06T06:40:09.641Z,59.73
2017-11-06T06:42:38.587Z,59.72
2017-11-06T06:45:06.961Z,59.65
2017-11-06T06:47:35.293Z,59.63
2017-11-06T06:50:03.629Z,59.56
2017-11-06T06:52:32.024Z,59.50
2017-11-06T06:55:00.383Z,59.44
2017-11-06T06:57:28.700Z,59.36
2017-11-06T06:59:56.963Z,59.52
2017-11-06T07:02:25.327Z,59.53
2017-11-06T07:04:53.679Z,59.37
2017-11-06T07:07:22.191Z,59.41
2017-11-06T07:09:50.639Z,59.32
2017-11-06T07:12:19.011Z,59.30
2017-11-06T07:14:47.328Z,59.44
2017-11-06T07:17:15.628Z,59.27
2017-11-06T07:19:43.887Z,59.31
2017-11-06T07:22:12.186Z,59.41
2017-11-06T07:24:40.453Z,59.34
2017-11-06T07:27:08.776Z,59.39
2017-11-06T07:29:37.076Z,59.35
2017-11-06T07:32:05.416Z,59.40
2017-11-06T07:34:33.819Z,59.49
2017-11-06T07:37:02.115Z,59.43
2017-11-06T07:39:30.586Z,59.47
2017-11-06T07:41:59.438Z,59.42
2017-11-06T07:44:28.047Z,59.31
2017-11-06T07:46:56.464Z,59.40
2017-11-06T07:49:25.445Z,59.37
2017-11-06T07:51:53.927Z,59.45
2017-11-06T07:54:22.276Z,59.46
2017-11-06T07:56:51.200Z,59.34
2017-11-06T07:59:19.497Z,59.25
2017-11-06T08:01:48.190Z,59.28
2017-11-06T08:04:16.635Z,59.30
2017-11-06T08:06:45.125Z,59.26
2017-11-06T08:09:13.384Z,59.30
2017-11-06T08:11:41.892Z,59.33
2017-11-06T08:14:10.191Z,59.33
2017-11-06T08:16:38.506Z,59.23
2017-11-06T08:19:06.823Z,59.24
2017-11-06T08:21:35.171Z,59.18
2017-11-06T08:24:03.489Z,59.14
2017-11-06T08:26:31.882Z,59.26
2017-11-06T08:29:00.170Z,59.38
2017-11-06T08:31:29.311Z,59.33
2017-11-06T08:33:57.875Z,59.18
2017-11-06T08:36:26.183Z,59.12
2017-11-06T08:38:54.451Z,58.91
2017-11-06T08:41:22.814Z,58.87
2017-11-06T08:43:51.095Z,58.70
2017-11-06T08:46:19.383Z,58.65
2017-11-06T08:48:47.666Z,58.80
2017-11-06T08:51:16.003Z,58.65
2017-11-06T08:53:44.387Z,58.61
2017-11-06T08:56:12.910Z,58.65
2017-11-06T08:58:41.317Z,58.71
2017-11-06T09:01:09.916Z,58.74
2017-11-06T09:03:38.231Z,58.74
2017-11-06T09:06:06.540Z,58.80
2017-11-06T09:08:34.823Z,58.75
2017-11-06T09:11:03.140Z,58.68
2017-11-06T09:13:31.443Z,58.71
2017-11-06T09:15:59.808Z,58.71
2017-11-06T09:18:28.255Z,58.70
2017-11-06T09:20:56.551Z,58.64
2017-11-06T09:23:25.015Z,58.65
2017-11-06T09:25:53.319Z,58.67
2017-11-06T09:28:21.741Z,58.59
2017-11-06T09:30:50.068Z,58.58
2017-11-06T09:33:18.329Z,58.62
2017-11-06T09:35:46.616Z,58.59
2017-11-06T09:38:15.128Z,58.59
2017-11-06T09:40:43.600Z,58.61
2017-11-06T09:43:11.883Z,58.60
2017-11-06T09:45:40.197Z,58.55
2017-11-06T09:48:08.599Z,58.49
2017-11-06T09:50:37.215Z,58.05
2017-11-06T09:53:05.526Z,57.92
2017-11-06T09:55:33.836Z,57.78
2017-11-06T09:58:02.174Z,57.74
2017-11-06T10:00:30.667Z,57.85
2017-11-06T10:02:59.050Z,57.95
2017-11-06T10:05:27.383Z,57.89
2017-11-06T10:07:55.692Z,57.76
2017-11-06T10:10:24.051Z,57.82
2017-11-06T10:12:52.333Z,57.73
2017-11-06T10:15:20.666Z,57.58
2017-11-06T10:17:49.033Z,57.56
2017-11-06T10:20:17.372Z,57.52
2017-11-06T10:22:45.741Z,57.48
2017-11-06T10:25:14.201Z,57.48
2017-11-06T10:27:42.644Z,57.28
2017-11-06T10:30:10.952Z,57.32
2017-11-06T10:32:39.317Z,57.45
2017-11-06T10:35:07.631Z,57.40
2017-11-06T10:37:35.952Z,57.47
2017-11-06T10:40:04.273Z,57.38
2017-11-06T10:42:32.556Z,57.36
2017-11-06T10:45:00.915Z,57.52
2017-11-06T10:47:29.729Z,57.46
2017-11-06T10:49:58.588Z,57.51
2017-11-06T10:52:27.083Z,57.62
2017-11-06T10:54:58.104Z,57.63
2017-11-06T10:57:26.457Z,57.65
2017-11-06T10:59:56.188Z,57.66
2017-11-06T11:02:25.045Z,57.80
2017-11-06T11:04:54.971Z,57.78
2017-11-06T11:07:24.784Z,57.82
2017-11-06T11:09:54.262Z,57.79
2017-11-06T11:12:22.737Z,57.87
2017-11-06T11:14:51.019Z,57.95
2017-11-06T11:17:19.468Z,57.92
2017-11-06T11:19:47.719Z,57.92
2017-11-06T11:22:16.160Z,57.96
2017-11-06T11:24:44.460Z,57.90
2017-11-06T11:27:12.779Z,57.87
2017-11-06T11:29:41.224Z,57.62
2017-11-06T11:32:09.744Z,57.58
2017-11-06T11:34:38.200Z,57.70
2017-11-06T11:37:06.572Z,57.64
2017-11-06T11:39:34.860Z,57.48
2017-11-06T11:42:03.233Z,57.42
2017-11-06T11:44:31.502Z,57.45
2017-11-06T11:47:00.021Z,57.26
2017-11-06T11:49:28.296Z,57.20
2017-11-06T11:51:56.797Z,57.14
2017-11-06T11:54:25.240Z,57.12
2017-11-06T11:56:53.758Z,57.04
2017-11-06T11:59:22.049Z,57.02
2017-11-06T12:01:50.418Z,56.97
2017-11-06T12:04:18.738Z,57.07
2017-11-06T12:06:47.046Z,57.12
2017-11-06T12:09:15.503Z,57.10
2017-11-06T12:11:43.899Z,57.13
2017-11-06T12:14:12.180Z,57.15
2017-11-06T12:16:40.483Z,57.07
2017-11-06T12:19:08.756Z,57.08
2017-11-06T12:21:37.059Z,57.16
2017-11-06T12:24:05.457Z,57.18
2017-11-06T12:26:33.827Z,57.23
2017-11-06T12:29:02.100Z,57.21
2017-11-06T12:31:31.624Z,57.21
2017-11-06T12:33:59.880Z,57.17
2017-11-06T12:36:28.199Z,57.24
2017-11-06T12:38:56.660Z,57.25
2017-11-06T12:41:24.993Z,57.22
2017-11-06T12:43:53.292Z,57.22
2017-11-06T12:46:21.590Z,57.43
2017-11-06T12:48:49.982Z,57.39
2017-11-06T12:51:18.275Z,57.32
2017-11-06T12:53:46.727Z,57.21
2017-11-06T12:56:15.051Z,57.16
2017-11-06T12:58:43.361Z,56.98
2017-11-06T13:01:11.654Z,56.95
2017-11-06T13:03:40.052Z,56.92
2017-11-06T13:06:08.359Z,56.92
2017-11-06T13:08:36.635Z,56.99
2017-11-06T13:11:04.999Z,56.97
2017-11-06T13:13:33.316Z,56.98
2017-11-06T13:16:01.615Z,56.97
2017-11-06T13:18:30.076Z,56.79
2017-11-06T13:20:58.393Z,56.64
2017-11-06T13:23:26.833Z,56.42
2017-11-06T13:25:55.386Z,55.76
2017-11-06T13:28:23.651Z,54.73
2017-11-06T13:30:52.041Z,54.77
2017-11-06T13:33:20.487Z,55.63
2017-11-06T13:35:48.797Z,56.18
2017-11-06T13:38:17.097Z,56.14
2017-11-06T13:40:45.387Z,56.22
2017-11-06T13:43:13.676Z,56.39
2017-11-06T13:45:42.799Z,56.49
2017-11-06T13:48:11.185Z,56.57
2017-11-06T13:50:39.561Z,56.70
2017-11-06T13:53:07.873Z,56.75
2017-11-06T13:55:36.155Z,56.69
2017-11-06T13:58:04.552Z,56.76
2017-11-06T14:00:32.851Z,57.02
2017-11-06T14:03:01.163Z,56.97
2017-11-06T14:05:29.487Z,57.10
2017-11-06T14:07:57.748Z,57.20
2017-11-06T14:10:26.043Z,57.18
2017-11-06T14:12:54.292Z,57.28
2017-11-06T14:15:22.594Z,57.35
2017-11-06T14:17:50.947Z,57.42
2017-11-06T14:20:19.264Z,57.47
2017-11-06T14:22:47.728Z,57.47
2017-11-06T14:25:16.020Z,57.53
2017-11-06T14:27:44.492Z,57.54
2017-11-06T14:30:12.784Z,57.55
2017-11-06T14:32:41.080Z,57.60
2017-11-06T14:35:09.442Z,57.57
2017-11-06T14:37:37.826Z,57.55
2017-11-06T14:40:06.311Z,57.61
2017-11-06T14:42:34.838Z,57.55
2017-11-06T14:45:03.275Z,57.62
2017-11-06T14:47:31.588Z,57.64
2017-11-06T14:49:59.988Z,57.57
2017-11-06T14:52:28.372Z,57.61
2017-11-06T14:54:56.768Z,57.67
2017-11-06T14:57:25.115Z,57.69
2017-11-06T14:59:53.395Z,57.67
2017-11-06T15:02:22.012Z,57.68
2017-11-06T15:04:50.580Z,57.67
2017-11-06T15:07:18.921Z,57.72
2017-11-06T15:09:47.263Z,57.72
2017-11-06T15:12:15.736Z,57.71
2017-11-06T15:14:44.584Z,57.73
2017-11-06T15:17:12.888Z,57.70
2017-11-06T15:19:41.158Z,57.72
2017-11-06T15:22:09.447Z,57.71
2017-11-06T15:24:37.754Z,57.71
2017-11-06T15:27:06.103Z,57.78
2017-11-06T15:29:34.467Z,57.76
2017-11-06T15:32:02.763Z,57.78
2017-11-06T15:34:31.054Z,57.78
2017-11-06T15:36:59.394Z,57.81
2017-11-06T15:39:27.705Z,57.82
2017-11-06T15:41:56.038Z,57.81
2017-11-06T15:44:24.343Z,57.81
2017-11-06T15:46:52.661Z,57.83
2017-11-06T15:49:21.008Z,57.82
2017-11-06T15:51:49.308Z,57.80
2017-11-06T15:54:17.583Z,57.75
2017-11-06T15:56:46.080Z,57.78
2017-11-06T15:59:14.415Z,57.78
2017-11-06T16:01:42.754Z,57.80
2017-11-06T16:04:11.080Z,57.74
2017-11-06T16:06:39.418Z,57.75
2017-11-06T16:09:07.724Z,57.64
2017-11-06T16:11:36.216Z,57.48
2017-11-06T16:14:04.639Z,57.49
2017-11-06T16:16:32.924Z,57.61
2017-11-06T16:19:01.213Z,57.53
2017-11-06T16:21:29.520Z,57.53
2017-11-06T16:23:57.788Z,57.39
2017-11-06T16:26:26.092Z,57.25
2017-11-06T16:28:54.490Z,57.25
2017-11-06T16:31:22.820Z,57.21
2017-11-06T16:33:51.115Z,57.21
2017-11-06T16:36:19.435Z,57.19
2017-11-06T16:38:47.763Z,57.21
2017-11-06T16:41:16.099Z,57.22
2017-11-06T16:43:44.432Z,57.26
2017-11-06T16:46:12.760Z,57.20
2017-11-06T16:48:41.064Z,57.21
2017-11-06T16:51:09.445Z,57.34
2017-11-06T16:53:37.759Z,57.21
2017-11-06T16:56:06.191Z,57.27
2017-11-06T16:58:34.470Z,57.33
2017-11-06T17:01:02.771Z,57.31
2017-11-06T17:03:31.075Z,57.37
2017-11-06T17:05:59.473Z,57.35
2017-11-06T17:08:27.752Z,57.36
2017-11-06T17:10:56.063Z,57.34
2017-11-06T17:13:24.768Z,57.32
2017-11-06T17:15:53.056Z,57.28
2017-11-06T17:18:21.383Z,57.33
2017-11-06T17:20:49.672Z,57.31
2017-11-06T17:23:17.950Z,57.32
2017-11-06T17:25:46.579Z,57.33
2017-11-06T17:28:15.104Z,57.33
2017-11-06T17:30:43.587Z,57.38
2017-11-06T17:33:11.896Z,57.43
2017-11-06T17:35:40.349Z,57.45
2017-11-06T17:38:08.635Z,57.46
2017-11-06T17:40:36.984Z,57.49
2017-11-06T17:43:05.351Z,57.46
2017-11-06T17:45:33.659Z,57.50
2017-11-06T17:48:01.944Z,57.55
2017-11-06T17:50:30.324Z,57.60
2017-11-06T17:52:58.661Z,57.58
2017-11-06T17:55:27.059Z,57.56
2017-11-06T17:57:55.505Z,57.53
2017-11-06T18:00:23.808Z,57.53
2017-11-06T18:02:52.200Z,57.51
2017-11-06T18:05:20.748Z,57.46
2017-11-06T18:07:49.219Z,57.47
2017-11-06T18:10:17.528Z,57.40
2017-11-06T18:12:45.861Z,57.39
2017-11-06T18:15:14.156Z,57.40
2017-11-06T18:17:44.674Z,57.41
2017-11-06T18:20:13.891Z,57.41
2017-11-06T18:22:43.075Z,57.39
2017-11-06T18:25:11.512Z,57.36
2017-11-06T18:27:39.819Z,57.38
2017-11-06T18:30:08.187Z,57.35
2017-11-06T18:32:37.797Z,57.34
2017-11-06T18:35:14.254Z,57.41
2017-11-06T18:37:42.543Z,57.32
2017-11-06T18:40:10.894Z,57.34
2017-11-06T18:42:39.272Z,57.19
2017-11-06T18:45:07.872Z,57.16
2017-11-06T18:47:36.227Z,57.09
2017-11-06T18:50:04.708Z,57.17
2017-11-06T18:52:33.218Z,57.21
2017-11-06T18:55:01.463Z,57.25
2017-11-06T18:57:31.124Z,57.25
2017-11-06T19:00:02.044Z,57.23
2017-11-06T19:02:34.102Z,57.24
2017-11-06T19:05:04.301Z,57.24
2017-11-06T19:07:34.765Z,57.23
2017-11-06T19:10:04.159Z,57.18
2017-11-06T19:12:33.319Z,57.14
2017-11-06T19:15:01.753Z,57.20
2017-11-06T19:17:30.185Z,57.20
2017-11-06T19:19:58.468Z,57.18
2017-11-06T19:22:26.827Z,57.09
2017-11-06T19:24:55.173Z,57.04
2017-11-06T19:27:24.512Z,57.05
2017-11-06T19:29:52.880Z,57.06
2017-11-06T19:32:21.208Z,57.03
2017-11-06T19:34:49.476Z,57.01
2017-11-06T19:37:17.848Z,57.04
2017-11-06T19:39:46.291Z,56.99
2017-11-06T19:42:14.979Z,56.98
2017-11-06T19:44:43.299Z,56.99
2017-11-06T19:47:12.111Z,56.96
2017-11-06T19:49:40.420Z,56.84
2017-11-06T19:52:09.116Z,56.87
2017-11-06T19:54:37.429Z,56.94
2017-11-06T19:57:05.752Z,56.88
2017-11-06T19:59:34.078Z,56.90
2017-11-06T20:02:02.661Z,56.90
2017-11-06T20:04:31.005Z,56.94
2017-11-06T20:06:59.327Z,56.85
2017-11-06T20:09:28.718Z,56.91
2017-11-06T20:11:57.576Z,56.76
2017-11-06T20:14:25.899Z,56.79
2017-11-06T20:16:54.266Z,56.93
2017-11-06T20:19:22.801Z,56.99
2017-11-06T20:21:51.192Z,56.87
2017-11-06T20:24:19.467Z,56.91
2017-11-06T20:26:47.789Z,56.93
2017-11-06T20:29:16.056Z,56.95
2017-11-06T20:31:44.434Z,57.00
2017-11-06T20:34:12.995Z,56.88
2017-11-06T20:36:41.376Z,57.05
2017-11-06T20:39:09.672Z,57.25
2017-11-06T20:41:38.204Z,57.29
2017-11-06T20:44:06.687Z,57.25
2017-11-06T20:46:35.181Z,57.30
2017-11-06T20:49:03.529Z,57.29
2017-11-06T20:51:32.017Z,57.32
2017-11-06T20:54:00.387Z,57.38
2017-11-06T20:56:28.900Z,57.29
2017-11-06T20:58:57.536Z,57.33
2017-11-06T21:01:25.847Z,57.29
2017-11-06T21:03:54.271Z,57.30
2017-11-06T21:06:22.584Z,57.40
2017-11-06T21:08:51.304Z,57.33
2017-11-06T21:11:19.612Z,57.31
2017-11-06T21:13:47.952Z,57.32
2017-11-06T21:16:16.418Z,57.34
2017-11-06T21:18:44.743Z,57.29
2017-11-06T21:21:15.008Z,57.25
2017-11-06T21:23:43.804Z,57.30
2017-11-06T21:26:12.631Z,57.28
2017-11-06T21:28:42.198Z,57.32
2017-11-06T21:31:10.712Z,57.24
2017-11-06T21:33:39.356Z,57.27
2017-11-06T21:36:07.867Z,57.19
2017-11-06T21:38:37.261Z,57.20
2017-11-06T21:41:05.695Z,57.18
2017-11-06T21:43:34.092Z,57.19
2017-11-06T21:46:02.582Z,57.17
2017-11-06T21:48:31.949Z,57.21
2017-11-06T21:51:02.180Z,57.17
2017-11-06T21:53:35.107Z,57.21
2017-11-06T21:56:04.112Z,57.16
2017-11-06T21:58:32.552Z,57.17
2017-11-06T22:01:01.210Z,57.11
2017-11-06T22:03:29.534Z,57.14
2017-11-06T22:05:57.911Z,57.16
2017-11-06T22:08:26.274Z,57.20
2017-11-06T22:10:54.792Z,57.16
2017-11-06T22:13:23.206Z,57.11
2017-11-06T22:15:51.755Z,57.09
2017-11-06T22:18:20.005Z,57.07
2017-11-06T22:20:48.328Z,57.06
2017-11-06T22:23:16.791Z,57.08
2017-11-06T22:25:45.149Z,57.05
2017-11-06T22:28:13.726Z,57.06
2017-11-06T22:30:42.059Z,57.03
2017-11-06T22:33:10.359Z,57.04
2017-11-06T22:35:38.784Z,57.07
2017-11-06T22:38:07.104Z,57.07
2017-11-06T22:40:35.447Z,57.02
2017-11-06T22:43:04.205Z,57.03
2017-11-06T22:45:32.560Z,57.04
2017-11-06T22:48:00.884Z,57.05
2017-11-06T22:50:29.175Z,57.05
2017-11-06T22:52:58.268Z,57.08
2017-11-06T22:55:27.291Z,57.12
2017-11-06T22:57:56.228Z,57.12
2017-11-06T23:00:25.308Z,57.01
2017-11-06T23:02:55.215Z,56.95
2017-11-06T23:05:24.172Z,56.88
2017-11-06T23:07:53.912Z,56.86
2017-11-06T23:10:24.055Z,56.83
2017-11-06T23:12:54.689Z,56.78
2017-11-06T23:15:23.080Z,56.75
2017-11-06T23:17:51.360Z,56.71
2017-11-06T23:20:19.689Z,56.68
2017-11-06T23:22:48.039Z,56.78
2017-11-06T23:25:16.381Z,56.81
2017-11-06T23:27:44.680Z,56.85
2017-11-06T23:30:13.136Z,56.90
2017-11-06T23:32:42.192Z,56.89
2017-11-06T23:35:10.784Z,56.93
2017-11-06T23:37:39.131Z,56.92
2017-11-06T23:40:07.444Z,56.92
2017-11-06T23:42:35.727Z,56.89
2017-11-06T23:45:04.040Z,56.89
2017-11-06T23:47:32.480Z,56.92
2017-11-06T23:50:00.717Z,56.94
2017-11-06T23:52:29.307Z,56.94
2017-11-06T23:57:32.359Z,56.85
